MST,Max TemperatureF,Mean TemperatureF,Min TemperatureF,Max Dew PointF,MeanDew PointF,Min DewpointF,Max Humidity, Mean Humidity, Min Humidity, Max Sea Level PressureIn, Mean Sea Level PressureIn, Min Sea Level PressureIn, Max VisibilityMiles, Mean VisibilityMiles, Min VisibilityMiles, Max Wind SpeedMPH, Mean Wind SpeedMPH, Max Gust SpeedMPH,PrecipitationIn, CloudCover, Events, WindDirDegrees
2014-2-1,19,11,2,10,7,-1,100,84,67,30.38,30.08,29.80,10,8,0,21,9,24,0.00,5,Fog,339
2014-2-2,23,8,-8,14,3,-9,91,80,68,30.36,30.27,30.04,10,9,0,12,5,15,0.00,1,Fog,232
2014-2-3,22,10,-3,16,7,-8,91,81,71,30.20,30.10,29.93,10,8,0,10,5,12,0.00,7,Fog,66
2014-2-4,19,9,-2,16,3,-8,92,84,75,30.63,30.23,30.03,10,4,0,26,17,32,0.00,8,Fog-Snow,27
2014-2-5,3,-6,-16,-6,-11,-20,83,73,62,30.80,30.72,30.44,10,10,10,15,8,20,T,1,,328
2014-2-6,5,-4,-14,-2,-8,-17,91,80,68,30.71,30.51,30.18,10,9,4,13,4,16,0.00,6,,164
2014-2-7,12,6,0,7,1,-3,88,77,66,30.27,30.13,30.00,10,10,10,17,8,22,0.00,4,,188
2014-2-8,29,20,10,18,14,6,84,73,62,30.25,30.08,29.99,10,9,4,16,6,22,T,5,Snow,58
2014-2-9,19,14,9,14,7,5,91,81,70,30.44,30.24,30.12,10,5,0,16,9,20,0.08,8,Fog-Snow,72
2014-2-10,17,13,8,12,8,3,83,78,73,30.41,30.31,30.13,10,10,5,15,9,18,T,7,,158
2014-2-11,34,25,15,25,18,10,100,83,66,30.31,30.14,30.02,10,5,0,22,6,32,0.00,3,Fog,211
2014-2-12,35,29,22,25,22,18,81,73,64,30.23,30.05,29.81,10,10,10,25,11,32,0.00,1,,259
2014-2-13,49,39,28,34,31,27,76,66,56,29.92,29.82,29.73,10,10,10,26,11,33,0.00,0,,276
2014-2-14,46,41,35,32,26,22,89,65,40,30.06,29.97,29.82,10,10,10,25,13,33,0.00,4,,291
2014-2-15,50,40,29,35,29,25,79,61,42,30.14,29.97,29.75,10,10,10,29,14,36,0.01,6,Rain,298
2014-2-16,60,44,27,37,31,22,85,62,39,30.08,29.83,29.65,10,10,10,38,14,51,0.00,2,,198
2014-2-17,59,44,29,31,22,13,78,48,17,30.09,29.96,29.78,10,10,10,39,12,52,0.00,1,,279
2014-2-18,58,42,25,25,20,14,75,47,19,30.06,29.89,29.73,10,10,2,45,13,58,0.00,1,,294
2014-2-19,59,43,26,34,25,20,82,52,21,29.99,29.68,29.50,10,9,1,39,15,49,0.01,3,Snow,200
2014-2-20,39,31,23,30,20,13,92,65,37,29.99,29.84,29.63,10,8,0,40,19,47,0.06,2,Fog-Snow,321
2014-2-21,49,36,23,23,18,13,68,47,26,29.96,29.90,29.84,10,10,10,26,12,35,0.00,1,,290
2014-2-22,44,34,24,29,24,18,100,68,36,30.17,30.01,29.92,10,4,0,22,10,26,0.25,5,Fog-Snow,54
2014-2-23,24,21,17,21,18,15,100,92,84,30.33,30.22,30.09,10,5,1,18,12,21,0.10,8,Snow,108
2014-2-24,32,19,5,25,17,-2,92,80,67,30.51,30.18,29.94,10,8,2,31,16,38,0.00,6,,120
2014-2-25,12,3,-7,9,2,-9,91,79,66,30.62,30.45,30.32,10,7,1,16,6,18,0.04,6,Snow,341
2014-2-26,31,9,-13,16,1,-15,91,72,53,30.55,30.27,30.12,10,8,0,15,8,36,0.00,1,Fog,264
2014-2-27,32,15,-2,22,11,-5,95,79,63,30.10,29.89,29.69,10,9,6,23,9,29,0.00,2,,112
2014-2-28,32,23,14,25,18,8,88,80,72,30.17,29.90,29.67,10,10,10,29,12,33,0.00,6,,24